sensor_id;sensor_type;location;lat;lon;timestamp;P1;durP1;ratioP1;P2;durP2;ratioP2
26951;SDS011;14507;52.418;13.398;2022-11-02T00:00:35;11.07;;;6.43;;
26951;SDS011;14507;52.418;13.398;2022-11-02T00:03:03;14.38;;;7.80;;
26951;SDS011;14507;52.418;13.398;2022-11-02T00:05:29;11.30;;;7.07;;
26951;SDS011;14507;52.418;13.398;2022-11-02T00:07:55;11.52;;;6.93;;
26951;SDS011;14507;52.418;13.398;2022-11-02T00:10:21;13.50;;;7.03;;
26951;SDS011;14507;52.418;13.398;2022-11-02T00:12:48;17.88;;;7.70;;
26951;SDS011;14507;52.418;13.398;2022-11-02T00:15:13;16.05;;;7.43;;
26951;SDS011;14507;52.418;13.398;2022-11-02T00:17:40;12.30;;;6.57;;
26951;SDS011;14507;52.418;13.398;2022-11-02T00:20:09;13.27;;;7.82;;
26951;SDS011;14507;52.418;13.398;2022-11-02T00:22:38;11.60;;;7.53;;
26951;SDS011;14507;52.418;13.398;2022-11-02T00:25:05;11.55;;;6.80;;
26951;SDS011;14507;52.418;13.398;2022-11-02T00:27:33;16.83;;;7.35;;
26951;SDS011;14507;52.418;13.398;2022-11-02T00:29:59;12.48;;;6.90;;
26951;SDS011;14507;52.418;13.398;2022-11-02T00:32:25;17.95;;;7.03;;
26951;SDS011;14507;52.418;13.398;2022-11-02T00:34:51;13.65;;;7.38;;
26951;SDS011;14507;52.418;13.398;2022-11-02T00:37:17;13.00;;;6.85;;
26951;SDS011;14507;52.418;13.398;2022-11-02T00:39:43;11.10;;;6.82;;
26951;SDS011;14507;52.418;13.398;2022-11-02T00:42:08;8.60;;;6.40;;
26951;SDS011;14507;52.418;13.398;2022-11-02T00:44:34;13.88;;;7.20;;
26951;SDS011;14507;52.418;13.398;2022-11-02T00:46:59;14.65;;;6.60;;
26951;SDS011;14507;52.418;13.398;2022-11-02T00:49:25;11.82;;;6.88;;
26951;SDS011;14507;52.418;13.398;2022-11-02T00:51:50;11.20;;;6.50;;
26951;SDS011;14507;52.418;13.398;2022-11-02T00:54:16;11.90;;;6.60;;
26951;SDS011;14507;52.418;13.398;2022-11-02T00:56:41;11.73;;;6.72;;
26951;SDS011;14507;52.418;13.398;2022-11-02T00:59:07;10.38;;;6.18;;
26951;SDS011;14507;52.418;13.398;2022-11-02T01:01:33;9.65;;;5.93;;
26951;SDS011;14507;52.418;13.398;2022-11-02T01:03:58;9.38;;;5.47;;
26951;SDS011;14507;52.418;13.398;2022-11-02T01:06:24;11.88;;;6.05;;
26951;SDS011;14507;52.418;13.398;2022-11-02T01:08:49;10.23;;;5.53;;
26951;SDS011;14507;52.418;13.398;2022-11-02T01:11:19;11.63;;;5.35;;
26951;SDS011;14507;52.418;13.398;2022-11-02T01:13:46;12.82;;;5.78;;
26951;SDS011;14507;52.418;13.398;2022-11-02T01:16:13;10.10;;;5.30;;
26951;SDS011;14507;52.418;13.398;2022-11-02T01:18:39;11.18;;;5.45;;
26951;SDS011;14507;52.418;13.398;2022-11-02T01:21:05;12.05;;;5.30;;
26951;SDS011;14507;52.418;13.398;2022-11-02T01:23:32;10.25;;;5.60;;
26951;SDS011;14507;52.418;13.398;2022-11-02T01:26:01;12.70;;;5.50;;
26951;SDS011;14507;52.418;13.398;2022-11-02T01:28:30;18.88;;;5.15;;
26951;SDS011;14507;52.418;13.398;2022-11-02T01:30:56;11.25;;;5.45;;
26951;SDS011;14507;52.418;13.398;2022-11-02T01:33:23;11.18;;;5.07;;
26951;SDS011;14507;52.418;13.398;2022-11-02T01:35:49;11.45;;;4.82;;
26951;SDS011;14507;52.418;13.398;2022-11-02T01:38:14;7.88;;;5.00;;
26951;SDS011;14507;52.418;13.398;2022-11-02T01:40:40;12.35;;;5.18;;
26951;SDS011;14507;52.418;13.398;2022-11-02T01:45:54;11.15;;;4.85;;
26951;SDS011;14507;52.418;13.398;2022-11-02T01:48:27;10.00;;;5.25;;
26951;SDS011;14507;52.418;13.398;2022-11-02T01:50:57;10.48;;;4.35;;
26951;SDS011;14507;52.418;13.398;2022-11-02T01:53:25;10.02;;;4.28;;
26951;SDS011;14507;52.418;13.398;2022-11-02T01:55:51;7.05;;;4.30;;
26951;SDS011;14507;52.418;13.398;2022-11-02T01:58:18;9.00;;;4.68;;
26951;SDS011;14507;52.418;13.398;2022-11-02T02:00:43;7.45;;;4.47;;
26951;SDS011;14507;52.418;13.398;2022-11-02T02:03:11;9.48;;;4.60;;
26951;SDS011;14507;52.418;13.398;2022-11-02T02:05:42;11.80;;;4.97;;
26951;SDS011;14507;52.418;13.398;2022-11-02T02:08:10;8.63;;;4.38;;
26951;SDS011;14507;52.418;13.398;2022-11-02T02:13:04;8.68;;;4.93;;
26951;SDS011;14507;52.418;13.398;2022-11-02T02:16:01;9.18;;;5.22;;
26951;SDS011;14507;52.418;13.398;2022-11-02T02:18:46;11.27;;;5.10;;
26951;SDS011;14507;52.418;13.398;2022-11-02T02:24:00;9.43;;;4.75;;
26951;SDS011;14507;52.418;13.398;2022-11-02T02:32:17;8.93;;;4.90;;
26951;SDS011;14507;52.418;13.398;2022-11-02T02:34:53;10.82;;;4.70;;
26951;SDS011;14507;52.418;13.398;2022-11-02T02:37:38;10.60;;;4.85;;
26951;SDS011;14507;52.418;13.398;2022-11-02T02:40:12;10.70;;;4.97;;
26951;SDS011;14507;52.418;13.398;2022-11-02T02:42:45;10.35;;;4.85;;
26951;SDS011;14507;52.418;13.398;2022-11-02T02:45:23;9.88;;;5.45;;
26951;SDS011;14507;52.418;13.398;2022-11-02T02:48:02;12.10;;;4.70;;
26951;SDS011;14507;52.418;13.398;2022-11-02T02:50:36;9.30;;;4.80;;
26951;SDS011;14507;52.418;13.398;2022-11-02T02:53:06;10.80;;;4.93;;
26951;SDS011;14507;52.418;13.398;2022-11-02T02:55:35;9.70;;;4.65;;
26951;SDS011;14507;52.418;13.398;2022-11-02T02:58:05;17.30;;;5.78;;
26951;SDS011;14507;52.418;13.398;2022-11-02T03:00:35;11.88;;;4.10;;
26951;SDS011;14507;52.418;13.398;2022-11-02T03:03:01;9.02;;;4.68;;
26951;SDS011;14507;52.418;13.398;2022-11-02T03:08:05;10.88;;;4.40;;
26951;SDS011;14507;52.418;13.398;2022-11-02T03:10:47;6.22;;;3.78;;
26951;SDS011;14507;52.418;13.398;2022-11-02T03:16:56;11.38;;;4.43;;
26951;SDS011;14507;52.418;13.398;2022-11-02T03:19:43;9.43;;;3.67;;
26951;SDS011;14507;52.418;13.398;2022-11-02T03:27:49;16.52;;;3.97;;
26951;SDS011;14507;52.418;13.398;2022-11-02T03:30:19;11.50;;;3.97;;
26951;SDS011;14507;52.418;13.398;2022-11-02T03:32:55;9.65;;;3.90;;
26951;SDS011;14507;52.418;13.398;2022-11-02T03:35:30;9.23;;;3.92;;
26951;SDS011;14507;52.418;13.398;2022-11-02T03:38:02;10.02;;;3.97;;
26951;SDS011;14507;52.418;13.398;2022-11-02T03:40:37;10.93;;;3.80;;
26951;SDS011;14507;52.418;13.398;2022-11-02T03:43:06;9.82;;;3.30;;
26951;SDS011;14507;52.418;13.398;2022-11-02T03:45:34;9.88;;;3.67;;
26951;SDS011;14507;52.418;13.398;2022-11-02T03:48:07;11.20;;;3.78;;
26951;SDS011;14507;52.418;13.398;2022-11-02T03:53:48;9.18;;;3.22;;
26951;SDS011;14507;52.418;13.398;2022-11-02T03:55:51;8.50;;;3.28;;
26951;SDS011;14507;52.418;13.398;2022-11-02T03:58:19;11.68;;;3.95;;
26951;SDS011;14507;52.418;13.398;2022-11-02T04:00:46;9.43;;;3.15;;
26951;SDS011;14507;52.418;13.398;2022-11-02T04:03:18;9.32;;;3.70;;
26951;SDS011;14507;52.418;13.398;2022-11-02T04:05:46;7.90;;;3.10;;
26951;SDS011;14507;52.418;13.398;2022-11-02T04:08:12;6.60;;;3.15;;
26951;SDS011;14507;52.418;13.398;2022-11-02T04:10:49;6.93;;;3.03;;
26951;SDS011;14507;52.418;13.398;2022-11-02T04:13:34;7.78;;;2.95;;
26951;SDS011;14507;52.418;13.398;2022-11-02T04:16:19;9.63;;;3.25;;
26951;SDS011;14507;52.418;13.398;2022-11-02T04:18:46;8.68;;;2.95;;
26951;SDS011;14507;52.418;13.398;2022-11-02T04:21:30;13.43;;;3.20;;
26951;SDS011;14507;52.418;13.398;2022-11-02T04:23:56;8.07;;;3.47;;
26951;SDS011;14507;52.418;13.398;2022-11-02T04:26:40;8.10;;;3.45;;
26951;SDS011;14507;52.418;13.398;2022-11-02T04:29:06;10.80;;;2.97;;
26951;SDS011;14507;52.418;13.398;2022-11-02T04:31:32;9.73;;;3.15;;
26951;SDS011;14507;52.418;13.398;2022-11-02T04:33:57;10.00;;;3.05;;
26951;SDS011;14507;52.418;13.398;2022-11-02T04:36:24;7.53;;;2.95;;
26951;SDS011;14507;52.418;13.398;2022-11-02T04:38:51;7.15;;;3.13;;
26951;SDS011;14507;52.418;13.398;2022-11-02T04:41:17;10.38;;;3.25;;
26951;SDS011;14507;52.418;13.398;2022-11-02T04:44:02;9.90;;;3.28;;
26951;SDS011;14507;52.418;13.398;2022-11-02T04:46:30;6.03;;;2.83;;
26951;SDS011;14507;52.418;13.398;2022-11-02T04:48:57;8.90;;;3.28;;
26951;SDS011;14507;52.418;13.398;2022-11-02T04:51:23;6.63;;;2.80;;
26951;SDS011;14507;52.418;13.398;2022-11-02T04:53:50;6.80;;;3.00;;
26951;SDS011;14507;52.418;13.398;2022-11-02T04:56:17;11.05;;;3.33;;
26951;SDS011;14507;52.418;13.398;2022-11-02T04:58:47;7.20;;;2.95;;
26951;SDS011;14507;52.418;13.398;2022-11-02T05:01:17;10.55;;;3.55;;
26951;SDS011;14507;52.418;13.398;2022-11-02T05:03:45;8.85;;;2.70;;
26951;SDS011;14507;52.418;13.398;2022-11-02T05:06:13;9.68;;;2.72;;
26951;SDS011;14507;52.418;13.398;2022-11-02T05:08:39;10.63;;;3.67;;
26951;SDS011;14507;52.418;13.398;2022-11-02T05:11:04;8.93;;;2.88;;
26951;SDS011;14507;52.418;13.398;2022-11-02T05:13:30;9.63;;;2.97;;
26951;SDS011;14507;52.418;13.398;2022-11-02T05:15:57;13.70;;;3.13;;
26951;SDS011;14507;52.418;13.398;2022-11-02T05:18:23;11.65;;;3.33;;
26951;SDS011;14507;52.418;13.398;2022-11-02T05:20:50;8.43;;;2.88;;
26951;SDS011;14507;52.418;13.398;2022-11-02T05:23:17;9.88;;;2.90;;
26951;SDS011;14507;52.418;13.398;2022-11-02T05:25:51;14.15;;;3.47;;
26951;SDS011;14507;52.418;13.398;2022-11-02T05:28:17;12.43;;;3.08;;
26951;SDS011;14507;52.418;13.398;2022-11-02T05:30:43;11.20;;;2.92;;
26951;SDS011;14507;52.418;13.398;2022-11-02T05:33:08;11.27;;;2.80;;
26951;SDS011;14507;52.418;13.398;2022-11-02T05:35:34;11.35;;;2.88;;
26951;SDS011;14507;52.418;13.398;2022-11-02T05:38:00;15.25;;;3.13;;
26951;SDS011;14507;52.418;13.398;2022-11-02T05:40:26;11.90;;;3.50;;
26951;SDS011;14507;52.418;13.398;2022-11-02T05:42:57;14.57;;;2.72;;
26951;SDS011;14507;52.418;13.398;2022-11-02T05:45:23;13.32;;;3.22;;
26951;SDS011;14507;52.418;13.398;2022-11-02T05:47:49;8.30;;;2.53;;
26951;SDS011;14507;52.418;13.398;2022-11-02T05:50:14;11.45;;;3.25;;
26951;SDS011;14507;52.418;13.398;2022-11-02T05:52:40;13.73;;;3.20;;
26951;SDS011;14507;52.418;13.398;2022-11-02T05:55:06;10.57;;;2.90;;
26951;SDS011;14507;52.418;13.398;2022-11-02T05:57:31;10.05;;;2.78;;
26951;SDS011;14507;52.418;13.398;2022-11-02T05:59:57;16.70;;;2.85;;
26951;SDS011;14507;52.418;13.398;2022-11-02T06:02:22;13.73;;;3.42;;
26951;SDS011;14507;52.418;13.398;2022-11-02T06:04:48;11.70;;;2.97;;
26951;SDS011;14507;52.418;13.398;2022-11-02T06:07:14;9.10;;;2.97;;
26951;SDS011;14507;52.418;13.398;2022-11-02T06:09:39;8.20;;;2.90;;
26951;SDS011;14507;52.418;13.398;2022-11-02T06:12:05;8.63;;;3.60;;
26951;SDS011;14507;52.418;13.398;2022-11-02T06:14:31;12.13;;;3.08;;
26951;SDS011;14507;52.418;13.398;2022-11-02T06:16:56;12.68;;;2.80;;
26951;SDS011;14507;52.418;13.398;2022-11-02T06:19:22;14.77;;;3.45;;
26951;SDS011;14507;52.418;13.398;2022-11-02T06:21:47;10.68;;;3.28;;
26951;SDS011;14507;52.418;13.398;2022-11-02T06:24:13;14.20;;;2.70;;
26951;SDS011;14507;52.418;13.398;2022-11-02T06:26:39;7.57;;;2.45;;
26951;SDS011;14507;52.418;13.398;2022-11-02T06:29:04;9.63;;;2.80;;
26951;SDS011;14507;52.418;13.398;2022-11-02T06:31:30;11.45;;;2.72;;
26951;SDS011;14507;52.418;13.398;2022-11-02T06:33:56;10.63;;;2.35;;
26951;SDS011;14507;52.418;13.398;2022-11-02T06:36:22;8.73;;;2.40;;
26951;SDS011;14507;52.418;13.398;2022-11-02T06:38:48;12.07;;;2.55;;
26951;SDS011;14507;52.418;13.398;2022-11-02T06:41:15;10.43;;;2.50;;
26951;SDS011;14507;52.418;13.398;2022-11-02T06:43:40;15.25;;;2.88;;
26951;SDS011;14507;52.418;13.398;2022-11-02T06:46:06;9.50;;;3.05;;
26951;SDS011;14507;52.418;13.398;2022-11-02T06:48:32;11.45;;;3.17;;
26951;SDS011;14507;52.418;13.398;2022-11-02T06:50:57;10.93;;;2.97;;
26951;SDS011;14507;52.418;13.398;2022-11-02T06:53:23;11.48;;;3.08;;
26951;SDS011;14507;52.418;13.398;2022-11-02T06:55:52;17.88;;;3.67;;
26951;SDS011;14507;52.418;13.398;2022-11-02T06:58:19;12.00;;;2.95;;
26951;SDS011;14507;52.418;13.398;2022-11-02T07:00:46;10.45;;;2.95;;
26951;SDS011;14507;52.418;13.398;2022-11-02T07:03:12;10.63;;;3.08;;
26951;SDS011;14507;52.418;13.398;2022-11-02T07:05:38;12.25;;;2.63;;
26951;SDS011;14507;52.418;13.398;2022-11-02T07:08:04;8.07;;;2.95;;
26951;SDS011;14507;52.418;13.398;2022-11-02T07:10:29;14.10;;;3.00;;
26951;SDS011;14507;52.418;13.398;2022-11-02T07:12:55;10.68;;;2.53;;
26951;SDS011;14507;52.418;13.398;2022-11-02T07:15:22;10.20;;;3.17;;
26951;SDS011;14507;52.418;13.398;2022-11-02T07:17:49;9.25;;;2.75;;
26951;SDS011;14507;52.418;13.398;2022-11-02T07:20:15;10.98;;;3.00;;
26951;SDS011;14507;52.418;13.398;2022-11-02T07:22:41;10.68;;;2.47;;
26951;SDS011;14507;52.418;13.398;2022-11-02T07:25:15;10.63;;;3.25;;
26951;SDS011;14507;52.418;13.398;2022-11-02T07:27:40;15.82;;;2.70;;
26951;SDS011;14507;52.418;13.398;2022-11-02T07:30:06;13.77;;;2.53;;
26951;SDS011;14507;52.418;13.398;2022-11-02T07:32:42;12.95;;;3.10;;
26951;SDS011;14507;52.418;13.398;2022-11-02T07:35:09;8.05;;;2.70;;
26951;SDS011;14507;52.418;13.398;2022-11-02T07:37:36;13.00;;;2.87;;
26951;SDS011;14507;52.418;13.398;2022-11-02T07:40:03;15.05;;;3.08;;
26951;SDS011;14507;52.418;13.398;2022-11-02T07:42:29;9.33;;;2.70;;
26951;SDS011;14507;52.418;13.398;2022-11-02T07:44:55;14.63;;;2.70;;
26951;SDS011;14507;52.418;13.398;2022-11-02T07:47:20;9.75;;;3.17;;
26951;SDS011;14507;52.418;13.398;2022-11-02T07:49:46;10.10;;;2.50;;
26951;SDS011;14507;52.418;13.398;2022-11-02T07:52:12;14.43;;;2.47;;
26951;SDS011;14507;52.418;13.398;2022-11-02T07:54:37;12.55;;;2.85;;
26951;SDS011;14507;52.418;13.398;2022-11-02T07:57:03;13.50;;;2.70;;
26951;SDS011;14507;52.418;13.398;2022-11-02T07:59:28;14.50;;;3.03;;
26951;SDS011;14507;52.418;13.398;2022-11-02T08:01:54;11.85;;;2.78;;
26951;SDS011;14507;52.418;13.398;2022-11-02T08:04:19;13.60;;;2.92;;
26951;SDS011;14507;52.418;13.398;2022-11-02T08:06:45;11.23;;;2.53;;
26951;SDS011;14507;52.418;13.398;2022-11-02T08:09:10;8.68;;;2.60;;
26951;SDS011;14507;52.418;13.398;2022-11-02T08:11:36;9.95;;;2.30;;
26951;SDS011;14507;52.418;13.398;2022-11-02T08:14:09;13.32;;;2.75;;
26951;SDS011;14507;52.418;13.398;2022-11-02T08:16:41;12.48;;;2.75;;
26951;SDS011;14507;52.418;13.398;2022-11-02T08:19:08;13.30;;;2.97;;
26951;SDS011;14507;52.418;13.398;2022-11-02T08:21:33;15.32;;;2.50;;
26951;SDS011;14507;52.418;13.398;2022-11-02T08:23:59;10.38;;;2.47;;
26951;SDS011;14507;52.418;13.398;2022-11-02T08:26:24;12.73;;;2.72;;
26951;SDS011;14507;52.418;13.398;2022-11-02T08:28:50;12.90;;;2.67;;
26951;SDS011;14507;52.418;13.398;2022-11-02T08:31:16;12.27;;;2.78;;
26951;SDS011;14507;52.418;13.398;2022-11-02T08:33:42;8.75;;;2.72;;
26951;SDS011;14507;52.418;13.398;2022-11-02T08:36:08;11.65;;;2.30;;
26951;SDS011;14507;52.418;13.398;2022-11-02T08:38:34;6.30;;;2.22;;
26951;SDS011;14507;52.418;13.398;2022-11-02T08:41:00;11.23;;;2.42;;
26951;SDS011;14507;52.418;13.398;2022-11-02T08:43:26;13.18;;;2.63;;
26951;SDS011;14507;52.418;13.398;2022-11-02T08:45:51;12.27;;;2.50;;
26951;SDS011;14507;52.418;13.398;2022-11-02T08:48:20;11.40;;;2.70;;
26951;SDS011;14507;52.418;13.398;2022-11-02T08:50:47;8.68;;;2.28;;
26951;SDS011;14507;52.418;13.398;2022-11-02T08:53:13;11.80;;;2.63;;
26951;SDS011;14507;52.418;13.398;2022-11-02T08:55:38;14.57;;;2.47;;
26951;SDS011;14507;52.418;13.398;2022-11-02T08:58:04;10.98;;;2.53;;
26951;SDS011;14507;52.418;13.398;2022-11-02T09:00:30;11.93;;;2.65;;
26951;SDS011;14507;52.418;13.398;2022-11-02T09:02:58;13.20;;;2.42;;
26951;SDS011;14507;52.418;13.398;2022-11-02T09:05:32;9.63;;;2.63;;
26951;SDS011;14507;52.418;13.398;2022-11-02T09:08:00;14.05;;;2.53;;
26951;SDS011;14507;52.418;13.398;2022-11-02T09:10:28;13.07;;;2.63;;
26951;SDS011;14507;52.418;13.398;2022-11-02T09:12:55;11.43;;;2.42;;
26951;SDS011;14507;52.418;13.398;2022-11-02T09:15:23;12.98;;;3.05;;
26951;SDS011;14507;52.418;13.398;2022-11-02T09:17:49;12.45;;;2.70;;
26951;SDS011;14507;52.418;13.398;2022-11-02T09:20:17;12.10;;;2.38;;
26951;SDS011;14507;52.418;13.398;2022-11-02T09:22:44;9.00;;;1.88;;
26951;SDS011;14507;52.418;13.398;2022-11-02T09:25:10;12.57;;;2.45;;
26951;SDS011;14507;52.418;13.398;2022-11-02T09:27:36;12.73;;;2.33;;
26951;SDS011;14507;52.418;13.398;2022-11-02T09:30:02;13.63;;;2.30;;
26951;SDS011;14507;52.418;13.398;2022-11-02T09:32:29;11.63;;;2.35;;
26951;SDS011;14507;52.418;13.398;2022-11-02T09:34:57;20.48;;;2.60;;
26951;SDS011;14507;52.418;13.398;2022-11-02T09:37:27;15.57;;;3.05;;
26951;SDS011;14507;52.418;13.398;2022-11-02T09:39:53;11.98;;;2.72;;
26951;SDS011;14507;52.418;13.398;2022-11-02T09:42:21;16.25;;;2.50;;
26951;SDS011;14507;52.418;13.398;2022-11-02T09:44:48;14.98;;;2.63;;
26951;SDS011;14507;52.418;13.398;2022-11-02T09:47:21;16.38;;;2.40;;
26951;SDS011;14507;52.418;13.398;2022-11-02T09:49:48;12.52;;;2.38;;
26951;SDS011;14507;52.418;13.398;2022-11-02T09:52:19;14.18;;;2.85;;
26951;SDS011;14507;52.418;13.398;2022-11-02T09:54:51;11.98;;;2.17;;
26951;SDS011;14507;52.418;13.398;2022-11-02T09:59:57;16.10;;;2.30;;
26951;SDS011;14507;52.418;13.398;2022-11-02T10:08:34;11.15;;;1.98;;
26951;SDS011;14507;52.418;13.398;2022-11-02T10:16:24;9.52;;;2.38;;
26951;SDS011;14507;52.418;13.398;2022-11-02T10:19:16;8.55;;;1.98;;
26951;SDS011;14507;52.418;13.398;2022-11-02T10:21:45;10.88;;;2.10;;
26951;SDS011;14507;52.418;13.398;2022-11-02T10:24:30;14.75;;;2.05;;
26951;SDS011;14507;52.418;13.398;2022-11-02T10:27:01;12.63;;;2.30;;
26951;SDS011;14507;52.418;13.398;2022-11-02T10:29:40;20.27;;;2.33;;
26951;SDS011;14507;52.418;13.398;2022-11-02T10:32:13;12.00;;;1.80;;
26951;SDS011;14507;52.418;13.398;2022-11-02T10:34:40;7.93;;;2.05;;
26951;SDS011;14507;52.418;13.398;2022-11-02T10:39:55;12.27;;;2.78;;
26951;SDS011;14507;52.418;13.398;2022-11-02T10:42:57;13.98;;;3.60;;
26951;SDS011;14507;52.418;13.398;2022-11-02T10:48:02;10.65;;;1.85;;
26951;SDS011;14507;52.418;13.398;2022-11-02T10:53:10;17.50;;;2.15;;
26951;SDS011;14507;52.418;13.398;2022-11-02T11:01:23;12.57;;;2.00;;
26951;SDS011;14507;52.418;13.398;2022-11-02T11:06:19;9.55;;;2.00;;
26951;SDS011;14507;52.418;13.398;2022-11-02T11:08:45;12.93;;;2.22;;
26951;SDS011;14507;52.418;13.398;2022-11-02T11:11:20;10.48;;;2.20;;
26951;SDS011;14507;52.418;13.398;2022-11-02T11:14:02;11.65;;;2.40;;
26951;SDS011;14507;52.418;13.398;2022-11-02T11:16:40;11.68;;;2.55;;
26951;SDS011;14507;52.418;13.398;2022-11-02T11:19:14;18.23;;;2.67;;
26951;SDS011;14507;52.418;13.398;2022-11-02T11:21:47;10.30;;;2.15;;
26951;SDS011;14507;52.418;13.398;2022-11-02T11:24:20;10.77;;;2.30;;
26951;SDS011;14507;52.418;13.398;2022-11-02T11:27:01;13.70;;;2.50;;
26951;SDS011;14507;52.418;13.398;2022-11-02T11:29:32;11.27;;;2.47;;
26951;SDS011;14507;52.418;13.398;2022-11-02T11:32:02;22.08;;;2.90;;
26951;SDS011;14507;52.418;13.398;2022-11-02T11:34:29;14.63;;;2.33;;
26951;SDS011;14507;52.418;13.398;2022-11-02T11:39:29;10.85;;;2.25;;
26951;SDS011;14507;52.418;13.398;2022-11-02T11:41:57;16.30;;;2.57;;
26951;SDS011;14507;52.418;13.398;2022-11-02T11:44:23;8.85;;;2.03;;
26951;SDS011;14507;52.418;13.398;2022-11-02T11:46:51;11.95;;;2.30;;
26951;SDS011;14507;52.418;13.398;2022-11-02T11:49:26;14.18;;;2.45;;
26951;SDS011;14507;52.418;13.398;2022-11-02T11:51:56;14.07;;;2.30;;
26951;SDS011;14507;52.418;13.398;2022-11-02T11:54:24;10.85;;;2.15;;
26951;SDS011;14507;52.418;13.398;2022-11-02T11:56:57;12.20;;;2.00;;
26951;SDS011;14507;52.418;13.398;2022-11-02T11:59:48;16.48;;;2.65;;
26951;SDS011;14507;52.418;13.398;2022-11-02T12:04:48;12.18;;;2.47;;
26951;SDS011;14507;52.418;13.398;2022-11-02T12:07:18;12.38;;;2.40;;
26951;SDS011;14507;52.418;13.398;2022-11-02T12:10:12;10.18;;;1.88;;
26951;SDS011;14507;52.418;13.398;2022-11-02T12:13:02;8.30;;;1.70;;
26951;SDS011;14507;52.418;13.398;2022-11-02T12:15:54;10.20;;;2.08;;
26951;SDS011;14507;52.418;13.398;2022-11-02T12:18:50;12.18;;;2.10;;
26951;SDS011;14507;52.418;13.398;2022-11-02T12:27:07;9.85;;;1.90;;
26951;SDS011;14507;52.418;13.398;2022-11-02T12:35:39;15.05;;;2.38;;
26951;SDS011;14507;52.418;13.398;2022-11-02T12:40:46;12.40;;;1.80;;
26951;SDS011;14507;52.418;13.398;2022-11-02T12:46:04;8.18;;;1.60;;
26951;SDS011;14507;52.418;13.398;2022-11-02T12:48:38;9.88;;;1.90;;
26951;SDS011;14507;52.418;13.398;2022-11-02T12:51:57;9.63;;;2.08;;
26951;SDS011;14507;52.418;13.398;2022-11-02T12:55:11;11.88;;;2.22;;
26951;SDS011;14507;52.418;13.398;2022-11-02T12:57:21;6.80;;;1.52;;
26951;SDS011;14507;52.418;13.398;2022-11-02T12:59:50;11.55;;;1.83;;
26951;SDS011;14507;52.418;13.398;2022-11-02T13:02:26;8.43;;;1.60;;
26951;SDS011;14507;52.418;13.398;2022-11-02T13:05:12;8.77;;;1.67;;
26951;SDS011;14507;52.418;13.398;2022-11-02T13:07:43;10.98;;;1.42;;
26951;SDS011;14507;52.418;13.398;2022-11-02T13:10:15;8.60;;;1.52;;
26951;SDS011;14507;52.418;13.398;2022-11-02T13:12:51;6.05;;;1.42;;
26951;SDS011;14507;52.418;13.398;2022-11-02T13:15:22;6.45;;;1.30;;
26951;SDS011;14507;52.418;13.398;2022-11-02T13:20:39;9.50;;;1.58;;
26951;SDS011;14507;52.418;13.398;2022-11-02T13:25:49;8.02;;;1.48;;
26951;SDS011;14507;52.418;13.398;2022-11-02T13:34:03;5.05;;;1.42;;
26951;SDS011;14507;52.418;13.398;2022-11-02T13:36:37;8.15;;;1.75;;
26951;SDS011;14507;52.418;13.398;2022-11-02T13:47:16;8.45;;;1.55;;
26951;SDS011;14507;52.418;13.398;2022-11-02T13:50:06;6.90;;;1.83;;
26951;SDS011;14507;52.418;13.398;2022-11-02T13:52:37;6.13;;;1.60;;
26951;SDS011;14507;52.418;13.398;2022-11-02T13:55:06;6.90;;;1.10;;
26951;SDS011;14507;52.418;13.398;2022-11-02T13:57:45;7.28;;;1.63;;
26951;SDS011;14507;52.418;13.398;2022-11-02T14:02:47;8.45;;;2.00;;
26951;SDS011;14507;52.418;13.398;2022-11-02T14:05:26;7.28;;;1.77;;
26951;SDS011;14507;52.418;13.398;2022-11-02T14:07:58;6.10;;;1.45;;
26951;SDS011;14507;52.418;13.398;2022-11-02T14:10:31;10.15;;;2.08;;
26951;SDS011;14507;52.418;13.398;2022-11-02T14:13:00;8.82;;;1.40;;
26951;SDS011;14507;52.418;13.398;2022-11-02T14:20:39;8.23;;;1.55;;
26951;SDS011;14507;52.418;13.398;2022-11-02T14:25:55;7.20;;;1.77;;
26951;SDS011;14507;52.418;13.398;2022-11-02T14:30:57;9.57;;;1.80;;
26951;SDS011;14507;52.418;13.398;2022-11-02T14:35:59;6.82;;;1.50;;
26951;SDS011;14507;52.418;13.398;2022-11-02T14:38:45;11.45;;;1.80;;
26951;SDS011;14507;52.418;13.398;2022-11-02T14:41:32;7.05;;;1.80;;
26951;SDS011;14507;52.418;13.398;2022-11-02T14:49:29;7.35;;;1.75;;
26951;SDS011;14507;52.418;13.398;2022-11-02T14:52:26;5.70;;;1.30;;
26951;SDS011;14507;52.418;13.398;2022-11-02T14:55:01;10.98;;;2.00;;
26951;SDS011;14507;52.418;13.398;2022-11-02T15:00:15;8.98;;;1.67;;
26951;SDS011;14507;52.418;13.398;2022-11-02T15:02:49;11.02;;;1.83;;
26951;SDS011;14507;52.418;13.398;2022-11-02T15:05:21;7.22;;;1.80;;
26951;SDS011;14507;52.418;13.398;2022-11-02T15:08:00;8.95;;;1.90;;
26951;SDS011;14507;52.418;13.398;2022-11-02T15:15:45;5.50;;;1.73;;
26951;SDS011;14507;52.418;13.398;2022-11-02T15:18:36;8.32;;;1.50;;
26951;SDS011;14507;52.418;13.398;2022-11-02T15:23:35;7.30;;;1.67;;
26951;SDS011;14507;52.418;13.398;2022-11-02T15:29:14;7.72;;;1.50;;
26951;SDS011;14507;52.418;13.398;2022-11-02T15:31:52;8.73;;;1.73;;
26951;SDS011;14507;52.418;13.398;2022-11-02T15:34:20;6.68;;;1.50;;
26951;SDS011;14507;52.418;13.398;2022-11-02T15:36:55;9.20;;;1.92;;
26951;SDS011;14507;52.418;13.398;2022-11-02T15:39:23;7.53;;;2.05;;
26951;SDS011;14507;52.418;13.398;2022-11-02T15:42:02;5.50;;;1.58;;
26951;SDS011;14507;52.418;13.398;2022-11-02T15:52:55;7.40;;;1.80;;
26951;SDS011;14507;52.418;13.398;2022-11-02T16:01:05;9.38;;;2.28;;
26951;SDS011;14507;52.418;13.398;2022-11-02T16:03:42;11.30;;;2.08;;
26951;SDS011;14507;52.418;13.398;2022-11-02T16:06:09;9.40;;;1.77;;
26951;SDS011;14507;52.418;13.398;2022-11-02T16:08:35;7.45;;;1.65;;
26951;SDS011;14507;52.418;13.398;2022-11-02T16:11:10;9.05;;;2.10;;
26951;SDS011;14507;52.418;13.398;2022-11-02T16:13:46;9.30;;;1.60;;
26951;SDS011;14507;52.418;13.398;2022-11-02T16:16:13;11.90;;;2.13;;
26951;SDS011;14507;52.418;13.398;2022-11-02T16:18:41;10.63;;;1.85;;
26951;SDS011;14507;52.418;13.398;2022-11-02T16:21:12;10.02;;;2.17;;
26951;SDS011;14507;52.418;13.398;2022-11-02T16:23:49;8.13;;;1.67;;
26951;SDS011;14507;52.418;13.398;2022-11-02T16:26:20;4.72;;;1.58;;
26951;SDS011;14507;52.418;13.398;2022-11-02T16:28:49;6.03;;;1.95;;
26951;SDS011;14507;52.418;13.398;2022-11-02T16:33:45;10.50;;;1.60;;
26951;SDS011;14507;52.418;13.398;2022-11-02T16:36:25;6.07;;;1.50;;
26951;SDS011;14507;52.418;13.398;2022-11-02T16:38:59;8.55;;;2.00;;
26951;SDS011;14507;52.418;13.398;2022-11-02T16:41:25;6.82;;;1.95;;
26951;SDS011;14507;52.418;13.398;2022-11-02T16:43:53;7.35;;;2.22;;
26951;SDS011;14507;52.418;13.398;2022-11-02T16:46:28;7.03;;;2.40;;
26951;SDS011;14507;52.418;13.398;2022-11-02T16:49:55;8.45;;;2.97;;
26951;SDS011;14507;52.418;13.398;2022-11-02T16:51:46;9.40;;;2.45;;
26951;SDS011;14507;52.418;13.398;2022-11-02T16:56:59;12.45;;;3.28;;
26951;SDS011;14507;52.418;13.398;2022-11-02T16:59:28;11.15;;;3.28;;
26951;SDS011;14507;52.418;13.398;2022-11-02T17:01:58;15.52;;;3.60;;
26951;SDS011;14507;52.418;13.398;2022-11-02T17:04:25;14.35;;;3.45;;
26951;SDS011;14507;52.418;13.398;2022-11-02T17:07:00;13.07;;;3.20;;
26951;SDS011;14507;52.418;13.398;2022-11-02T17:09:36;9.27;;;3.10;;
26951;SDS011;14507;52.418;13.398;2022-11-02T17:12:06;17.05;;;3.28;;
26951;SDS011;14507;52.418;13.398;2022-11-02T17:14:42;14.05;;;2.90;;
26951;SDS011;14507;52.418;13.398;2022-11-02T17:19:51;10.82;;;2.97;;